createdAt,value
2022-10-15T00:01:53.116Z,81.47
2022-10-15T00:04:21.061Z,81.46
2022-10-15T00:06:47.468Z,81.38
2022-10-15T00:09:13.927Z,81.47
2022-10-15T00:11:40.373Z,81.59
2022-10-15T00:14:06.844Z,81.84
2022-10-15T00:16:33.800Z,81.94
2022-10-15T00:19:00.593Z,81.88
2022-10-15T00:21:29.004Z,82.12
2022-10-15T00:23:55.541Z,82.13
2022-10-15T00:26:24.571Z,82.38
2022-10-15T00:28:52.948Z,82.60
2022-10-15T00:31:20.390Z,82.48
2022-10-15T00:33:49.038Z,82.88
2022-10-15T00:36:18.205Z,82.96
2022-10-15T00:38:46.199Z,83.08
2022-10-15T00:41:15.505Z,83.43
2022-10-15T00:43:44.093Z,83.53
2022-10-15T00:46:22.013Z,83.84
2022-10-15T00:48:51.389Z,83.69
2022-10-15T00:51:20.561Z,84.00
2022-10-15T00:53:49.635Z,83.94
2022-10-15T00:56:19.644Z,84.26
2022-10-15T00:58:46.812Z,84.67
2022-10-15T01:01:13.493Z,84.57
2022-10-15T01:03:40.140Z,84.92
2022-10-15T01:06:07.142Z,84.70
2022-10-15T01:08:34.169Z,84.98
2022-10-15T01:11:13.751Z,85.32
2022-10-15T01:13:53.805Z,85.67
2022-10-15T01:16:28.714Z,85.76
2022-10-15T01:19:01.297Z,85.53
2022-10-15T01:21:33.203Z,85.73
2022-10-15T01:24:42.289Z,85.69
2022-10-15T01:27:33.766Z,85.76
2022-10-15T01:30:26.808Z,85.93
2022-10-15T01:33:24.649Z,85.74
2022-10-15T01:35:53.796Z,85.83
2022-10-15T01:38:35.569Z,85.92
2022-10-15T01:41:09.925Z,86.30
2022-10-15T01:43:41.860Z,86.28
2022-10-15T01:46:14.960Z,86.69
2022-10-15T01:48:42.818Z,86.65
2022-10-15T01:51:10.968Z,86.49
2022-10-15T01:53:39.995Z,86.45
2022-10-15T01:56:09.617Z,86.88
2022-10-15T01:58:38.388Z,86.76
2022-10-15T02:01:05.442Z,86.99
2022-10-15T02:03:44.247Z,86.85
2022-10-15T02:06:15.643Z,86.52
2022-10-15T02:08:57.621Z,86.47
2022-10-15T02:11:24.191Z,86.31
2022-10-15T02:13:58.024Z,86.25
2022-10-15T02:16:31.209Z,86.51
2022-10-15T02:19:05.747Z,86.27
2022-10-15T02:21:39.022Z,86.12
2022-10-15T02:24:10.120Z,86.20
2022-10-15T02:26:38.962Z,86.60
2022-10-15T02:29:10.246Z,86.59
2022-10-15T02:31:40.235Z,86.70
2022-10-15T02:34:11.092Z,86.93
2022-10-15T02:36:40.026Z,86.92
2022-10-15T02:39:10.052Z,86.85
2022-10-15T02:41:38.502Z,86.51
2022-10-15T02:44:05.503Z,86.47
2022-10-15T02:46:32.182Z,86.57
2022-10-15T02:48:58.673Z,86.30
2022-10-15T02:51:26.766Z,86.27
2022-10-15T02:53:53.254Z,85.92
2022-10-15T02:56:19.756Z,85.79
2022-10-15T02:58:46.294Z,85.97
2022-10-15T03:01:12.761Z,86.11
2022-10-15T03:03:39.242Z,86.21
2022-10-15T03:06:06.012Z,86.28
2022-10-15T03:08:33.804Z,86.69
2022-10-15T03:11:00.372Z,86.37
2022-10-15T03:13:26.831Z,86.58
2022-10-15T03:15:53.285Z,86.15
2022-10-15T03:18:19.952Z,86.36
2022-10-15T03:20:53.472Z,86.44
2022-10-15T03:23:19.776Z,86.41
2022-10-15T03:25:47.651Z,86.26
2022-10-15T03:28:14.098Z,86.04
2022-10-15T03:30:40.537Z,86.07
2022-10-15T03:33:06.994Z,86.16
2022-10-15T03:35:33.460Z,85.98
2022-10-15T03:38:00.072Z,86.04
2022-10-15T03:40:26.587Z,86.03
2022-10-15T03:42:54.346Z,86.03
2022-10-15T03:45:20.822Z,85.42
2022-10-15T03:47:47.233Z,85.20
2022-10-15T03:50:13.989Z,85.12
2022-10-15T03:52:40.458Z,84.99
2022-10-15T03:55:09.414Z,84.33
2022-10-15T03:57:36.055Z,84.50
2022-10-15T04:00:06.198Z,84.50
2022-10-15T04:02:32.946Z,84.23
2022-10-15T04:04:59.814Z,84.20
2022-10-15T04:07:26.864Z,84.41
2022-10-15T04:09:53.272Z,84.23
2022-10-15T04:12:19.702Z,84.39
2022-10-15T04:14:46.145Z,84.60
2022-10-15T04:17:13.906Z,85.16
2022-10-15T04:19:40.348Z,85.68
2022-10-15T04:22:06.862Z,85.59
2022-10-15T04:24:33.316Z,86.12
2022-10-15T04:26:59.751Z,86.10
2022-10-15T04:29:26.241Z,86.23
2022-10-15T04:31:52.682Z,86.26
2022-10-15T04:34:20.434Z,86.17
2022-10-15T04:36:46.871Z,86.03
2022-10-15T04:39:14.628Z,85.73
2022-10-15T04:41:41.376Z,85.91
2022-10-15T04:44:07.905Z,85.82
2022-10-15T04:46:34.394Z,85.97
2022-10-15T04:49:00.819Z,85.90
2022-10-15T04:51:28.648Z,85.84
2022-10-15T04:53:55.413Z,85.62
2022-10-15T04:56:22.541Z,85.20
2022-10-15T04:58:50.268Z,84.73
2022-10-15T05:01:18.984Z,84.04
2022-10-15T05:03:46.761Z,83.85
2022-10-15T05:06:14.718Z,83.79
2022-10-15T05:08:43.156Z,84.33
2022-10-15T05:11:12.001Z,84.57
2022-10-15T05:13:38.716Z,85.13
2022-10-15T05:16:10.079Z,84.67
2022-10-15T05:18:36.820Z,84.35
2022-10-15T05:21:03.400Z,84.08
2022-10-15T05:23:29.877Z,83.83
2022-10-15T05:26:00.764Z,83.59
2022-10-15T05:28:27.661Z,83.33
2022-10-15T05:30:54.159Z,83.35
2022-10-15T05:33:20.722Z,83.53
2022-10-15T05:35:47.936Z,83.00
2022-10-15T05:38:14.549Z,82.60
2022-10-15T05:40:40.959Z,82.67
2022-10-15T05:43:08.779Z,82.69
2022-10-15T05:45:35.224Z,82.54
2022-10-15T05:48:01.645Z,82.23
2022-10-15T05:50:28.134Z,82.29
2022-10-15T05:52:54.636Z,82.63
2022-10-15T05:55:21.202Z,82.86
2022-10-15T05:57:47.607Z,82.88
2022-10-15T06:00:16.057Z,83.09
2022-10-15T06:02:42.543Z,83.26
2022-10-15T06:05:09.191Z,83.51
2022-10-15T06:07:35.673Z,83.74
2022-10-15T06:10:02.160Z,83.90
2022-10-15T06:12:28.598Z,84.03
2022-10-15T06:14:55.044Z,83.75
2022-10-15T06:17:23.096Z,84.19
2022-10-15T06:19:49.690Z,84.28
2022-10-15T06:22:16.176Z,84.36
2022-10-15T06:24:42.634Z,84.37
2022-10-15T06:27:09.124Z,84.78
2022-10-15T06:29:35.601Z,85.13
2022-10-15T06:32:02.084Z,84.96
2022-10-15T06:34:29.838Z,85.66
2022-10-15T06:36:56.318Z,85.39
2022-10-15T06:39:22.765Z,85.56
2022-10-15T06:41:49.219Z,85.65
2022-10-15T06:44:15.654Z,85.58
2022-10-15T06:50:18.787Z,86.29
2022-10-15T06:52:45.192Z,86.58
2022-10-15T06:55:11.645Z,87.36
2022-10-15T06:57:38.094Z,88.09
2022-10-15T07:00:05.356Z,88.67
2022-10-15T07:02:31.944Z,88.56
2022-10-15T07:04:58.376Z,88.67
2022-10-15T07:07:26.152Z,88.83
2022-10-15T07:09:52.593Z,88.68
2022-10-15T07:12:19.116Z,88.83
2022-10-15T07:14:45.522Z,89.14
2022-10-15T07:17:11.954Z,89.34
2022-10-15T07:19:38.448Z,89.14
2022-10-15T07:22:04.897Z,88.97
2022-10-15T07:24:32.669Z,89.26
2022-10-15T07:27:02.617Z,89.17
2022-10-15T07:29:34.765Z,89.17
2022-10-15T07:32:01.230Z,88.99
2022-10-15T07:34:27.783Z,88.79
2022-10-15T07:36:54.249Z,88.67
2022-10-15T07:39:20.673Z,88.57
2022-10-15T07:41:48.444Z,88.57
2022-10-15T07:44:14.848Z,88.55
2022-10-15T07:46:41.286Z,87.96
2022-10-15T07:49:07.942Z,87.19
2022-10-15T07:51:34.445Z,86.28
2022-10-15T07:54:00.900Z,85.96
2022-10-15T07:56:27.366Z,85.75
2022-10-15T07:58:55.154Z,85.45
2022-10-15T08:01:21.779Z,85.62
2022-10-15T08:03:48.385Z,85.22
2022-10-15T08:06:14.930Z,85.00
2022-10-15T08:08:41.490Z,85.19
2022-10-15T08:11:09.254Z,85.05
2022-10-15T08:13:36.028Z,84.80
2022-10-15T08:16:04.453Z,84.68
2022-10-15T08:18:30.898Z,84.64
2022-10-15T08:20:59.230Z,84.45
2022-10-15T08:23:25.776Z,84.43
2022-10-15T08:25:52.196Z,84.04
2022-10-15T08:28:18.732Z,83.92
2022-10-15T08:30:45.205Z,83.88
2022-10-15T08:33:13.059Z,84.07
2022-10-15T08:35:41.372Z,83.60
2022-10-15T08:38:07.800Z,83.32
2022-10-15T08:40:34.271Z,82.81
2022-10-15T08:43:00.759Z,81.77
2022-10-15T08:45:31.634Z,81.47
2022-10-15T08:48:01.577Z,81.35
2022-10-15T08:50:40.606Z,81.16
2022-10-15T08:53:12.810Z,80.67
2022-10-15T08:55:42.938Z,80.90
2022-10-15T08:58:15.333Z,80.88
2022-10-15T09:00:46.299Z,80.87
2022-10-15T09:03:26.098Z,81.07
2022-10-15T09:06:01.620Z,81.12
2022-10-15T09:08:35.318Z,80.56
2022-10-15T09:11:09.233Z,79.63
2022-10-15T09:13:40.551Z,79.48
2022-10-15T09:16:15.193Z,79.10
2022-10-15T09:18:44.427Z,79.22
2022-10-15T09:21:12.972Z,78.36
2022-10-15T09:23:39.802Z,78.31
2022-10-15T09:26:22.293Z,79.07
2022-10-15T09:28:56.258Z,78.32
2022-10-15T09:31:29.249Z,78.60
2022-10-15T09:34:00.295Z,78.14
2022-10-15T09:36:35.538Z,77.56
2022-10-15T09:39:09.132Z,77.87
2022-10-15T09:41:46.776Z,77.53
2022-10-15T09:44:15.203Z,77.66
2022-10-15T09:46:46.565Z,76.92
2022-10-15T09:49:15.737Z,76.94
2022-10-15T09:51:48.126Z,76.85
2022-10-15T09:54:23.903Z,76.72
2022-10-15T09:56:53.832Z,75.90
2022-10-15T09:59:21.708Z,76.02
2022-10-15T10:01:57.553Z,75.70
2022-10-15T10:04:27.196Z,74.82
2022-10-15T10:06:56.785Z,74.77
2022-10-15T10:09:25.649Z,74.98
2022-10-15T10:11:54.832Z,74.81
2022-10-15T10:14:29.302Z,73.75
2022-10-15T10:17:15.447Z,74.02
2022-10-15T10:19:42.017Z,73.57
2022-10-15T10:22:16.149Z,73.64
2022-10-15T10:24:43.226Z,73.54
2022-10-15T10:27:20.091Z,72.81
2022-10-15T10:29:52.844Z,73.41
2022-10-15T10:32:21.615Z,73.04
2022-10-15T10:34:52.401Z,72.99
2022-10-15T10:37:21.465Z,72.64
2022-10-15T10:39:53.578Z,72.90
2022-10-15T10:42:31.685Z,72.52
2022-10-15T10:45:18.572Z,71.57
2022-10-15T10:47:45.553Z,71.20
2022-10-15T10:50:28.877Z,70.87
2022-10-15T10:52:57.466Z,70.73
2022-10-15T10:55:34.276Z,71.48
2022-10-15T10:58:01.563Z,70.56
2022-10-15T11:00:37.005Z,70.44
2022-10-15T11:03:04.041Z,70.20
2022-10-15T11:05:37.689Z,70.15
2022-10-15T11:08:14.023Z,69.74
2022-10-15T11:10:49.004Z,69.84
2022-10-15T11:13:33.174Z,69.35
2022-10-15T11:16:04.173Z,69.46
2022-10-15T11:18:44.742Z,68.85
2022-10-15T11:21:19.568Z,69.36
2022-10-15T11:24:00.118Z,68.47
2022-10-15T11:26:51.991Z,69.45
2022-10-15T11:29:34.063Z,68.68
2022-10-15T11:32:16.539Z,67.66
2022-10-15T11:34:53.594Z,68.14
2022-10-15T11:37:34.515Z,67.96
2022-10-15T11:40:19.926Z,67.78
2022-10-15T11:42:53.727Z,67.54
2022-10-15T11:45:39.213Z,67.96
2022-10-15T11:48:12.999Z,68.04
2022-10-15T11:50:44.784Z,68.10
2022-10-15T11:53:50.666Z,68.27
2022-10-15T11:56:22.650Z,67.57
2022-10-15T11:58:53.906Z,67.53
2022-10-15T12:01:37.374Z,67.65
2022-10-15T12:04:10.334Z,67.35
2022-10-15T12:06:42.206Z,67.24
2022-10-15T12:09:15.788Z,67.43
2022-10-15T12:11:49.389Z,66.63
2022-10-15T12:14:22.960Z,67.39
2022-10-15T12:16:58.847Z,67.36
2022-10-15T12:19:29.614Z,66.95
2022-10-15T12:22:07.985Z,67.28
2022-10-15T12:24:50.932Z,67.41
2022-10-15T12:27:23.737Z,67.52
2022-10-15T12:29:52.674Z,67.10
2022-10-15T12:32:24.365Z,66.76
2022-10-15T12:34:55.109Z,66.90
2022-10-15T12:37:24.453Z,66.29
2022-10-15T12:39:57.113Z,66.17
2022-10-15T12:42:28.096Z,66.49
2022-10-15T12:44:55.573Z,67.06
2022-10-15T12:47:47.679Z,66.79
2022-10-15T12:50:18.510Z,67.26
2022-10-15T12:53:04.477Z,67.87
2022-10-15T12:55:33.525Z,67.20
2022-10-15T12:58:26.321Z,67.41
2022-10-15T13:00:52.897Z,67.18
2022-10-15T13:03:32.081Z,67.52
2022-10-15T13:06:14.446Z,67.57
2022-10-15T13:08:45.437Z,67.77
2022-10-15T13:11:21.330Z,67.32
2022-10-15T13:13:50.829Z,67.20
2022-10-15T13:16:17.539Z,67.62
2022-10-15T13:18:49.780Z,68.02
2022-10-15T13:21:16.487Z,67.78
2022-10-15T13:23:46.278Z,66.81
2022-10-15T13:26:18.296Z,66.63
2022-10-15T13:28:46.422Z,67.04
2022-10-15T13:31:19.511Z,67.38
2022-10-15T13:33:50.583Z,68.06
2022-10-15T13:36:21.881Z,67.12
2022-10-15T13:38:54.703Z,67.45
2022-10-15T13:41:27.630Z,66.66
2022-10-15T13:43:55.250Z,65.83
2022-10-15T13:46:25.372Z,66.68
2022-10-15T13:48:57.663Z,66.43
2022-10-15T13:51:29.462Z,65.57
2022-10-15T13:53:55.978Z,65.54
2022-10-15T13:56:26.075Z,65.21
2022-10-15T13:58:53.651Z,64.99
2022-10-15T14:01:21.566Z,65.28
2022-10-15T14:03:50.987Z,65.20
2022-10-15T14:06:19.432Z,65.14
2022-10-15T14:08:47.468Z,65.05
2022-10-15T14:11:15.324Z,64.47
2022-10-15T14:13:46.800Z,65.63
2022-10-15T14:16:18.624Z,64.72
2022-10-15T14:18:49.254Z,65.06
2022-10-15T14:21:19.769Z,64.79
2022-10-15T14:23:48.584Z,65.15
2022-10-15T14:26:15.698Z,65.06
2022-10-15T14:28:49.510Z,65.17
2022-10-15T14:31:30.367Z,64.98
2022-10-15T14:33:57.014Z,65.71
2022-10-15T14:36:29.660Z,65.69
2022-10-15T14:39:25.939Z,66.08
2022-10-15T14:42:00.484Z,66.23
2022-10-15T14:44:40.791Z,66.04
2022-10-15T14:47:19.462Z,66.38
2022-10-15T14:49:46.446Z,66.62
2022-10-15T14:52:17.184Z,66.86
2022-10-15T14:54:47.803Z,67.09
2022-10-15T14:57:20.464Z,66.74
2022-10-15T14:59:47.117Z,67.09
2022-10-15T15:02:16.367Z,66.90
2022-10-15T15:04:45.053Z,67.19
2022-10-15T15:07:18.721Z,67.91
2022-10-15T15:09:49.049Z,68.11
2022-10-15T15:12:22.866Z,68.25
2022-10-15T15:14:52.136Z,68.32
2022-10-15T15:17:21.684Z,68.50
2022-10-15T15:19:48.622Z,68.53
2022-10-15T15:22:21.113Z,68.30
2022-10-15T15:24:47.678Z,69.07
2022-10-15T15:27:23.692Z,69.23
2022-10-15T15:29:51.934Z,69.24
2022-10-15T15:32:19.577Z,69.25
2022-10-15T15:34:46.394Z,69.41
2022-10-15T15:37:14.714Z,69.45
2022-10-15T15:39:42.926Z,69.67
2022-10-15T15:42:12.482Z,69.96
2022-10-15T15:44:38.952Z,69.78
2022-10-15T15:47:05.600Z,69.94
2022-10-15T15:49:32.284Z,70.28
2022-10-15T15:51:58.906Z,70.58
2022-10-15T15:54:25.579Z,70.55
2022-10-15T15:56:53.610Z,70.94
2022-10-15T15:59:20.111Z,71.00
2022-10-15T16:01:46.719Z,70.95
2022-10-15T16:04:13.421Z,71.34
2022-10-15T16:06:40.307Z,71.08
2022-10-15T16:09:06.994Z,71.48
2022-10-15T16:11:33.842Z,71.52
2022-10-15T16:14:03.708Z,71.74
2022-10-15T16:16:32.297Z,71.71
2022-10-15T16:18:58.767Z,72.17
2022-10-15T16:21:26.227Z,72.39
2022-10-15T16:23:53.583Z,72.71
2022-10-15T16:26:20.081Z,72.49
2022-10-15T16:28:46.719Z,72.69
2022-10-15T16:31:15.938Z,72.45
2022-10-15T16:33:42.468Z,73.06
2022-10-15T16:36:09.144Z,73.13
2022-10-15T16:38:35.707Z,73.21
2022-10-15T16:41:02.239Z,73.52
2022-10-15T16:43:28.861Z,73.43
2022-10-15T16:45:55.557Z,73.81
2022-10-15T16:48:23.856Z,73.93
2022-10-15T16:50:58.950Z,74.01
2022-10-15T16:53:25.560Z,74.39
2022-10-15T16:55:52.136Z,74.70
2022-10-15T16:58:18.706Z,74.93
2022-10-15T17:00:45.237Z,75.00
2022-10-15T17:03:11.810Z,75.18
2022-10-15T17:05:39.615Z,75.35
2022-10-15T17:08:06.122Z,75.35
2022-10-15T17:10:32.665Z,75.56
2022-10-15T17:12:59.295Z,75.84
2022-10-15T17:15:25.898Z,75.82
2022-10-15T17:17:52.463Z,76.21
2022-10-15T17:20:19.000Z,76.50
2022-10-15T17:22:46.960Z,76.24
2022-10-15T17:25:13.520Z,76.82
2022-10-15T17:27:40.110Z,76.70
2022-10-15T17:30:08.109Z,77.05
2022-10-15T17:32:34.601Z,77.72
2022-10-15T17:35:03.796Z,77.36
2022-10-15T17:37:31.003Z,77.36
2022-10-15T17:39:59.138Z,77.88
2022-10-15T17:42:26.187Z,78.08
2022-10-15T17:44:52.933Z,78.59
2022-10-15T17:47:19.501Z,79.19
2022-10-15T17:49:46.236Z,79.25
2022-10-15T17:52:12.778Z,79.28
2022-10-15T17:54:39.376Z,79.48
2022-10-15T17:57:07.300Z,79.91
2022-10-15T17:59:33.929Z,80.31
2022-10-15T18:02:00.972Z,79.96
2022-10-15T18:04:28.686Z,79.75
2022-10-15T18:06:55.180Z,80.29
2022-10-15T18:09:21.825Z,80.27
2022-10-15T18:11:48.296Z,80.69
2022-10-15T18:14:17.305Z,80.61
2022-10-15T18:16:43.896Z,80.24
2022-10-15T18:19:10.616Z,80.60
2022-10-15T18:21:37.181Z,80.04
2022-10-15T18:24:03.943Z,80.32
2022-10-15T18:26:30.463Z,80.51
2022-10-15T18:28:56.993Z,80.23
2022-10-15T18:31:24.857Z,80.19
2022-10-15T18:33:53.114Z,80.08
2022-10-15T18:36:21.726Z,80.08
2022-10-15T18:38:48.258Z,80.37
2022-10-15T18:41:15.858Z,80.92
2022-10-15T18:43:42.582Z,81.53
2022-10-15T18:46:09.749Z,81.72
2022-10-15T18:48:38.245Z,81.75
2022-10-15T18:51:09.175Z,81.59
2022-10-15T18:53:36.227Z,82.19
2022-10-15T18:56:03.154Z,82.45
2022-10-15T18:58:29.650Z,82.46
2022-10-15T19:00:56.166Z,82.36
2022-10-15T19:03:22.583Z,82.50
2022-10-15T19:05:50.354Z,82.47
2022-10-15T19:08:20.727Z,82.67
2022-10-15T19:10:47.912Z,82.90
2022-10-15T19:13:14.338Z,83.01
2022-10-15T19:15:40.801Z,83.05
2022-10-15T19:18:07.291Z,83.53
2022-10-15T19:20:33.728Z,83.58
2022-10-15T19:23:01.529Z,83.97
2022-10-15T19:25:27.963Z,83.65
2022-10-15T19:27:54.412Z,83.64
2022-10-15T19:30:20.909Z,83.69
2022-10-15T19:32:47.341Z,83.74
2022-10-15T19:35:14.038Z,83.51
2022-10-15T19:37:40.500Z,83.60
2022-10-15T19:40:09.598Z,83.83
2022-10-15T19:42:36.047Z,83.61
2022-10-15T19:45:02.590Z,83.71
2022-10-15T19:47:29.320Z,83.87
2022-10-15T19:49:55.757Z,83.84
2022-10-15T19:52:22.224Z,83.46
2022-10-15T19:54:48.683Z,83.33
2022-10-15T19:57:16.510Z,83.59
2022-10-15T19:59:42.953Z,83.43
2022-10-15T20:02:11.561Z,83.41
2022-10-15T20:04:38.181Z,83.31
2022-10-15T20:07:04.623Z,83.21
2022-10-15T20:09:31.174Z,83.38
2022-10-15T20:11:57.617Z,83.33
2022-10-15T20:14:25.357Z,83.41
2022-10-15T20:16:51.824Z,83.07
2022-10-15T20:19:20.169Z,83.07
2022-10-15T20:21:46.623Z,82.94
2022-10-15T20:24:13.097Z,82.66
2022-10-15T20:26:39.547Z,82.88
2022-10-15T20:29:06.091Z,82.65
2022-10-15T20:31:33.916Z,82.80
2022-10-15T20:34:00.996Z,82.95
2022-10-15T20:36:27.583Z,83.20
2022-10-15T20:38:54.221Z,83.27
2022-10-15T20:41:20.686Z,83.79
2022-10-15T20:43:52.940Z,83.93
2022-10-15T20:46:23.780Z,83.72
2022-10-15T20:48:51.640Z,84.15
2022-10-15T20:51:20.657Z,83.98
2022-10-15T20:53:49.585Z,84.08
2022-10-15T20:56:16.056Z,84.10
2022-10-15T20:58:42.482Z,84.09
2022-10-15T21:01:08.968Z,84.12
2022-10-15T21:03:35.470Z,84.21
2022-10-15T21:06:03.284Z,84.14
2022-10-15T21:08:29.898Z,83.89
2022-10-15T21:11:01.153Z,84.08
2022-10-15T21:13:27.745Z,83.95
2022-10-15T21:15:57.506Z,83.84
2022-10-15T21:18:23.973Z,83.82
2022-10-15T21:20:50.456Z,83.82
2022-10-15T21:23:18.194Z,83.78
2022-10-15T21:25:44.712Z,83.67
2022-10-15T21:28:11.116Z,83.69
2022-10-15T21:30:39.433Z,83.54
2022-10-15T21:33:06.021Z,83.12
2022-10-15T21:35:32.486Z,83.19
2022-10-15T21:37:58.941Z,83.06
2022-10-15T21:40:26.746Z,83.04
2022-10-15T21:42:53.323Z,83.27
2022-10-15T21:45:19.803Z,83.25
2022-10-15T21:47:46.313Z,83.24
2022-10-15T21:50:12.747Z,83.25
2022-10-15T21:52:39.181Z,83.23
2022-10-15T21:55:06.730Z,83.21
2022-10-15T21:57:34.544Z,83.11
2022-10-15T22:00:01.067Z,82.98
2022-10-15T22:02:27.608Z,83.17
2022-10-15T22:04:54.067Z,83.13
2022-10-15T22:07:20.710Z,83.20
2022-10-15T22:09:47.231Z,83.14
2022-10-15T22:12:15.561Z,83.00
2022-10-15T22:14:45.524Z,82.89
2022-10-15T22:17:11.927Z,82.94
2022-10-15T22:19:38.388Z,82.96
2022-10-15T22:22:04.874Z,82.85
2022-10-15T22:24:31.361Z,82.96
2022-10-15T22:26:57.828Z,82.91
2022-10-15T22:29:25.902Z,82.85
2022-10-15T22:31:54.828Z,83.03
2022-10-15T22:34:22.394Z,83.00
2022-10-15T22:36:49.155Z,82.99
2022-10-15T22:39:18.561Z,83.09
2022-10-15T22:41:46.457Z,82.98
2022-10-15T22:44:14.804Z,83.01
2022-10-15T22:46:41.306Z,82.95
2022-10-15T22:49:10.305Z,82.97
2022-10-15T22:51:36.758Z,83.05
2022-10-15T22:54:03.328Z,83.40
2022-10-15T22:56:30.492Z,83.06
2022-10-15T22:58:57.699Z,83.20
2022-10-15T23:01:26.153Z,83.34
2022-10-15T23:03:55.068Z,83.54
2022-10-15T23:06:23.873Z,83.70
2022-10-15T23:08:50.540Z,83.83
2022-10-15T23:11:19.081Z,83.49
2022-10-15T23:13:46.822Z,83.92
2022-10-15T23:16:15.737Z,83.96
2022-10-15T23:18:43.195Z,84.02
2022-10-15T23:21:13.338Z,83.92
2022-10-15T23:23:41.539Z,83.89
2022-10-15T23:26:11.044Z,84.21
2022-10-15T23:28:37.760Z,84.08
2022-10-15T23:31:04.303Z,84.21
2022-10-15T23:33:30.893Z,84.33
2022-10-15T23:35:59.778Z,84.49
2022-10-15T23:38:26.985Z,85.02
2022-10-15T23:40:58.949Z,84.85
2022-10-15T23:43:25.443Z,84.92
2022-10-15T23:45:51.884Z,84.86
2022-10-15T23:48:18.365Z,84.81
2022-10-15T23:50:44.748Z,85.04
2022-10-15T23:53:11.317Z,84.96
2022-10-15T23:55:38.713Z,84.96
2022-10-15T23:58:07.069Z,84.97
